Time;durP1;ratioP1;P1;durP2;ratioP2;P2;SDS_P1;SDS_P2;PMS_P1;PMS_P2;Temp;Humidity;BMP_temperature;BMP_pressure;BME280_temperature;BME280_humidity;BME280_pressure;Samples;Min_cycle;Max_cycle;Signal;HPM_P1;HPM_P2
2021/01/31 00:00:18;;;;;;;9.90;6.90;;;-0.40;1.00;;;;;;5051536;28;20182;-62
2021/01/31 00:02:44;;;;;;;9.55;6.93;;;-0.40;1.00;;;;;;5050347;28;20186;-63
2021/01/31 00:05:10;;;;;;;10.93;7.53;;;-0.50;1.00;;;;;;5054292;28;20200;-62
2021/01/31 00:07:36;;;;;;;9.05;6.60;;;-0.50;1.00;;;;;;5065399;28;20238;-62
2021/01/31 00:10:03;;;;;;;10.07;7.97;;;-0.60;1.00;;;;;;5053901;28;20189;-63
2021/01/31 00:12:29;;;;;;;10.27;7.07;;;-0.70;1.00;;;;;;5031111;28;21029;-63
2021/01/31 00:14:54;;;;;;;13.10;8.10;;;-0.80;1.00;;;;;;5059679;28;20185;-61
2021/01/31 00:17:20;;;;;;;11.77;8.03;;;-0.80;1.00;;;;;;5062979;28;20273;-61
2021/01/31 00:19:45;;;;;;;11.07;7.70;;;-0.80;1.00;;;;;;5048357;28;20192;-63
2021/01/31 00:22:11;;;;;;;13.77;7.80;;;-1.00;1.00;;;;;;5051832;28;20205;-62
2021/01/31 00:24:36;;;;;;;13.50;8.43;;;-1.10;1.00;;;;;;5048679;28;20641;-63
2021/01/31 00:27:02;;;;;;;13.50;8.57;;;-1.20;1.00;;;;;;5054881;28;20645;-62
2021/01/31 00:29:28;;;;;;;11.17;8.67;;;-1.30;1.00;;;;;;5050046;28;20177;-63
2021/01/31 00:31:53;;;;;;;11.80;7.90;;;-1.30;1.00;;;;;;5059583;28;20640;-63
2021/01/31 00:34:20;;;;;;;13.33;8.60;;;-1.40;1.00;;;;;;5052043;28;20181;-62
2021/01/31 00:36:47;;;;;;;15.10;9.07;;;-1.50;1.00;;;;;;5047772;28;20181;-62
2021/01/31 00:39:13;;;;;;;13.88;9.18;;;-1.50;7.40;;;;;;5021457;28;20233;-60
2021/01/31 00:41:39;;;;;;;13.13;8.50;;;-1.50;9.80;;;;;;5061273;28;20680;-62
2021/01/31 00:44:06;;;;;;;14.55;8.43;;;-1.50;7.00;;;;;;5057295;28;20284;-59
2021/01/31 00:46:37;;;;;;;12.85;8.07;;;-1.60;13.60;;;;;;5049328;28;20619;-63
2021/01/31 00:49:04;;;;;;;13.05;8.88;;;-1.60;14.40;;;;;;5041589;28;20182;-63
2021/01/31 00:51:30;;;;;;;13.57;8.10;;;-1.70;12.00;;;;;;5050020;28;20193;-64
2021/01/31 00:53:55;;;;;;;13.90;9.20;;;-1.70;12.80;;;;;;5049866;28;20696;-64
2021/01/31 00:56:21;;;;;;;11.80;8.37;;;-1.70;17.00;;;;;;5047078;28;20284;-62
2021/01/31 00:58:47;;;;;;;10.50;7.87;;;-1.70;19.20;;;;;;5050434;28;20188;-63
2021/01/31 01:01:15;;;;;;;12.10;8.67;;;-1.70;18.80;;;;;;5047879;28;20235;-59
2021/01/31 01:03:40;;;;;;;10.23;8.00;;;-1.70;15.20;;;;;;5049439;28;20221;-59
2021/01/31 01:06:06;;;;;;;14.20;8.63;;;-1.80;13.50;;;;;;5048965;28;20228;-59
2021/01/31 01:08:32;;;;;;;12.10;7.50;;;-1.80;17.40;;;;;;5048930;28;20182;-59
2021/01/31 01:10:58;;;;;;;14.10;8.30;;;-1.90;17.10;;;;;;5052029;28;20189;-57
2021/01/31 01:13:26;;;;;;;11.75;8.27;;;-1.90;17.90;;;;;;5051780;28;20985;-63
2021/01/31 01:15:52;;;;;;;16.25;7.88;;;-1.90;23.10;;;;;;5053790;28;20893;-63
2021/01/31 01:18:17;;;;;;;11.43;7.70;;;-1.90;24.50;;;;;;5048272;28;20194;-60
2021/01/31 01:20:43;;;;;;;12.60;8.40;;;-1.90;23.90;;;;;;5047620;28;20436;-54
2021/01/31 01:23:09;;;;;;;13.17;8.43;;;-1.90;26.30;;;;;;5052684;28;20272;-57
2021/01/31 01:25:34;;;;;;;12.53;8.70;;;-1.90;28.60;;;;;;5034167;28;20256;-57
2021/01/31 01:28:01;;;;;;;14.40;8.83;;;-1.90;28.30;;;;;;5054310;28;20178;-63
2021/01/31 01:30:29;;;;;;;13.98;8.05;;;-1.90;31.00;;;;;;5052164;28;20185;-63
2021/01/31 01:32:56;;;;;;;14.77;9.30;;;-1.80;37.70;;;;;;5058027;28;20594;-62
2021/01/31 01:35:22;;;;;;;14.27;8.85;;;-1.80;39.40;;;;;;5050598;28;20236;-62
2021/01/31 01:37:49;;;;;;;10.50;7.88;;;-1.80;35.90;;;;;;5047434;28;20194;-58
2021/01/31 01:40:23;;;;;;;13.45;9.10;;;-1.80;35.10;;;;;;5049244;28;20631;-57
2021/01/31 01:42:49;;;;;;;11.75;8.18;;;-1.80;33.20;;;;;;5054040;28;20696;-58
2021/01/31 01:45:15;;;;;;;14.50;8.80;;;-1.80;35.70;;;;;;5049818;28;20208;-59
2021/01/31 01:47:42;;;;;;;14.25;8.93;;;-1.80;33.60;;;;;;5056760;28;20180;-59
2021/01/31 01:50:24;;;;;;;12.40;9.15;;;-1.80;28.50;;;;;;5060975;28;20186;-57
2021/01/31 01:52:52;;;;;;;12.95;8.65;;;-1.80;27.80;;;;;;5063716;28;20243;-59
2021/01/31 01:55:18;;;;;;;14.27;9.20;;;-1.80;28.30;;;;;;5044331;28;20193;-54
2021/01/31 01:57:58;;;;;;;12.98;9.35;;;-1.80;25.50;;;;;;5048935;28;20532;-64
2021/01/31 02:00:24;;;;;;;12.25;8.88;;;-1.80;21.00;;;;;;5050601;28;20255;-58
2021/01/31 02:03:01;;;;;;;14.70;8.95;;;-1.80;18.10;;;;;;5051923;28;20339;-59
2021/01/31 02:05:27;;;;;;;12.60;8.18;;;-1.90;21.10;;;;;;5054063;28;20733;-59
2021/01/31 02:07:53;;;;;;;12.95;8.60;;;-1.90;20.80;;;;;;5048815;28;20221;-64
2021/01/31 02:10:22;;;;;;;13.07;8.70;;;-2.00;23.80;;;;;;5051151;28;20272;-57
2021/01/31 02:12:50;;;;;;;13.02;7.88;;;-2.10;22.70;;;;;;5048664;28;20182;-56
2021/01/31 02:15:18;;;;;;;12.85;8.85;;;-2.20;20.70;;;;;;5053048;28;20743;-62
2021/01/31 02:18:07;;;;;;;13.40;9.20;;;-2.20;26.40;;;;;;5052799;28;20194;-63
2021/01/31 02:20:48;;;;;;;15.02;8.80;;;-2.30;29.50;;;;;;5052196;28;20531;-62
2021/01/31 02:23:38;;;;;;;13.45;8.90;;;-2.30;27.20;;;;;;5055099;28;20186;-65
2021/01/31 02:26:07;;;;;;;17.05;9.63;;;-2.40;31.60;;;;;;5054168;28;20259;-64
2021/01/31 02:28:50;;;;;;;16.33;9.40;;;-2.50;29.70;;;;;;5052812;28;20892;-64
2021/01/31 02:31:34;;;;;;;13.40;9.52;;;-2.50;36.20;;;;;;5042649;28;20534;-61
2021/01/31 02:34:27;;;;;;;12.82;8.68;;;-2.50;42.50;;;;;;5057350;28;20768;-63
2021/01/31 02:37:15;;;;;;;12.98;8.30;;;-2.50;42.60;;;;;;5053892;28;20184;-58
2021/01/31 02:39:53;;;;;;;13.30;9.05;;;-2.40;41.60;;;;;;5051837;28;20248;-57
2021/01/31 02:42:34;;;;;;;14.75;8.95;;;-2.40;46.70;;;;;;5056742;28;20184;-58
2021/01/31 02:45:11;;;;;;;16.25;10.02;;;-2.40;47.90;;;;;;5048909;28;20205;-58
2021/01/31 02:47:43;;;;;;;14.95;8.85;;;-2.40;47.40;;;;;;5069617;28;20185;-59
2021/01/31 02:50:27;;;;;;;14.80;8.80;;;-2.40;49.50;;;;;;5057171;28;20261;-58
2021/01/31 02:53:27;;;;;;;11.43;7.82;;;-2.40;49.40;;;;;;5043520;28;20181;-58
2021/01/31 02:56:10;;;;;;;14.63;9.20;;;-2.40;53.00;;;;;;5052489;28;20191;-59
2021/01/31 02:58:40;;;;;;;13.70;8.18;;;-2.40;53.50;;;;;;5058046;28;20174;-59
2021/01/31 03:01:16;;;;;;;17.35;10.85;;;-2.40;53.70;;;;;;5033364;28;20272;-59
2021/01/31 03:03:43;;;;;;;15.75;8.85;;;-2.40;55.40;;;;;;5062929;28;20298;-60
2021/01/31 03:06:25;;;;;;;13.82;8.73;;;-2.50;50.90;;;;;;5055430;28;20186;-58
2021/01/31 03:09:15;;;;;;;14.50;8.85;;;-2.50;49.10;;;;;;5064779;28;20185;-59
2021/01/31 03:11:55;;;;;;;14.50;7.85;;;-2.50;50.00;;;;;;5058869;28;20202;-56
2021/01/31 03:14:36;;;;;;;14.65;8.70;;;-2.60;49.70;;;;;;5049792;28;20235;-59
2021/01/31 03:17:15;;;;;;;16.48;9.52;;;-2.60;52.30;;;;;;5054597;28;20215;-58
2021/01/31 03:19:57;;;;;;;13.35;8.10;;;-2.60;54.60;;;;;;5053635;28;20260;-58
2021/01/31 03:22:32;;;;;;;15.68;9.10;;;-2.60;54.20;;;;;;5047847;28;20190;-59
2021/01/31 03:25:03;;;;;;;14.15;8.65;;;-2.70;56.50;;;;;;5053215;28;20256;-57
2021/01/31 03:27:35;;;;;;;12.77;9.27;;;-2.70;57.90;;;;;;5021072;28;20268;-57
2021/01/31 03:30:01;;;;;;;13.68;8.60;;;-2.70;59.10;;;;;;5050100;28;20181;-59
2021/01/31 03:32:41;;;;;;;17.33;9.73;;;-2.70;63.80;;;;;;5061201;28;20227;-58
2021/01/31 03:35:15;;;;;;;12.95;7.95;;;-2.80;68.30;;;;;;5057055;28;21345;-59
2021/01/31 03:38:04;;;;;;;12.63;8.80;;;-2.80;68.30;;;;;;5045401;28;20186;-59
2021/01/31 03:40:31;;;;;;;12.23;7.63;;;-2.80;67.10;;;;;;5047335;28;20205;-57
2021/01/31 03:42:56;;;;;;;16.48;8.80;;;-2.80;68.50;;;;;;5051020;28;20596;-58
2021/01/31 03:45:30;;;;;;;13.70;8.83;;;-2.90;67.90;;;;;;5049162;28;20285;-59
2021/01/31 03:48:24;;;;;;;16.20;9.45;;;-2.90;68.00;;;;;;5050909;28;20166;-59
2021/01/31 03:50:49;;;;;;;11.93;7.90;;;-2.90;69.30;;;;;;5049805;28;20720;-59
2021/01/31 03:53:15;;;;;;;15.00;9.07;;;-3.00;69.90;;;;;;5043550;28;20320;-59
2021/01/31 03:55:42;;;;;;;15.93;9.13;;;-3.00;71.90;;;;;;5045699;28;20574;-57
2021/01/31 03:58:12;;;;;;;9.90;7.78;;;-3.00;77.00;;;;;;5030405;28;20289;-59
2021/01/31 04:00:47;;;;;;;13.43;8.63;;;-3.10;80.60;;;;;;5043615;28;20186;-59
2021/01/31 04:03:41;;;;;;;13.73;8.50;;;-3.10;81.30;;;;;;5031080;28;20170;-59
2021/01/31 04:06:11;;;;;;;10.82;7.75;;;-3.20;80.50;;;;;;5033322;28;20230;-59
2021/01/31 04:08:38;;;;;;;15.90;10.43;;;-3.20;79.80;;;;;;5030751;28;20173;-58
2021/01/31 04:11:04;;;;;;;14.50;8.95;;;-3.30;80.10;;;;;;5047790;28;20212;-58
2021/01/31 04:13:34;;;;;;;16.43;9.07;;;-3.30;84.50;;;;;;5047444;28;20601;-59
2021/01/31 04:16:03;;;;;;;15.40;9.02;;;-3.30;91.80;;;;;;5049424;28;20222;-58
2021/01/31 04:18:29;;;;;;;18.90;10.40;;;-3.40;93.30;;;;;;5048540;28;20699;-58
2021/01/31 04:20:55;;;;;;;14.10;8.93;;;-3.40;94.10;;;;;;5040123;28;20173;-59
2021/01/31 04:23:21;;;;;;;15.90;9.87;;;-3.50;94.70;;;;;;5040831;28;20581;-58
2021/01/31 04:25:48;;;;;;;15.23;8.75;;;-3.50;95.40;;;;;;5055106;28;20162;-59
2021/01/31 04:28:21;;;;;;;16.35;10.20;;;-3.50;96.10;;;;;;5055618;28;20189;-57
2021/01/31 04:30:49;;;;;;;15.13;9.65;;;-3.50;97.10;;;;;;5030887;28;20319;-59
2021/01/31 04:33:15;;;;;;;17.40;10.40;;;-3.60;98.00;;;;;;5032191;28;20186;-59
2021/01/31 04:35:41;;;;;;;18.13;10.87;;;-3.60;99.90;;;;;;5070127;28;20833;-57
2021/01/31 04:38:07;;;;;;;16.07;9.83;;;-3.60;99.90;;;;;;5043736;28;20191;-58
2021/01/31 04:40:34;;;;;;;17.30;10.07;;;-3.60;99.90;;;;;;5039226;28;20505;-59
2021/01/31 04:43:01;;;;;;;15.15;10.25;;;-3.60;99.90;;;;;;5049883;28;20432;-58
2021/01/31 04:45:27;;;;;;;15.48;8.80;;;-3.70;99.80;;;;;;5041985;28;20201;-58
2021/01/31 04:48:04;;;;;;;15.97;9.20;;;-3.70;99.40;;;;;;5061273;28;20207;-56
2021/01/31 04:51:07;;;;;;;16.95;9.63;;;-3.80;98.40;;;;;;5050992;28;20696;-59
2021/01/31 04:53:58;;;;;;;15.65;9.15;;;-3.80;97.80;;;;;;5060217;28;20238;-58
2021/01/31 04:56:49;;;;;;;18.30;10.15;;;-3.90;98.70;;;;;;5043188;28;20204;-58
2021/01/31 04:59:47;;;;;;;15.10;8.82;;;-4.00;98.30;;;;;;5049109;28;20184;-59
2021/01/31 05:02:36;;;;;;;15.93;9.55;;;-4.00;98.60;;;;;;5057011;28;20216;-57
2021/01/31 05:05:03;;;;;;;16.25;9.63;;;-4.10;99.90;;;;;;5058160;28;20221;-59
2021/01/31 05:07:53;;;;;;;18.27;10.32;;;-4.00;99.90;;;;;;5054337;28;20311;-56
2021/01/31 05:10:19;;;;;;;16.48;8.85;;;-4.00;99.90;;;;;;5041902;28;20178;-58
2021/01/31 05:12:51;;;;;;;16.50;8.65;;;-4.10;99.90;;;;;;5063637;28;20650;-57
2021/01/31 05:15:22;;;;;;;17.08;10.52;;;-4.10;99.90;;;;;;5052073;28;20186;-59
2021/01/31 05:17:51;;;;;;;14.27;8.52;;;-4.20;99.90;;;;;;5046054;28;20198;-59
2021/01/31 05:20:21;;;;;;;15.88;9.05;;;-4.20;99.90;;;;;;5060078;28;20181;-56
2021/01/31 05:22:51;;;;;;;15.02;10.13;;;-4.30;99.90;;;;;;5052256;28;20190;-58
2021/01/31 05:25:20;;;;;;;14.20;9.00;;;-4.30;99.90;;;;;;5049442;28;20314;-57
2021/01/31 05:27:49;;;;;;;14.00;9.02;;;-4.40;99.90;;;;;;5053814;28;20178;-59
2021/01/31 05:30:15;;;;;;;16.13;9.38;;;-4.40;99.90;;;;;;5050169;28;20192;-58
2021/01/31 05:33:01;;;;;;;15.52;9.43;;;-4.50;99.90;;;;;;5051952;28;20227;-58
2021/01/31 05:35:28;;;;;;;15.55;9.75;;;-4.50;99.90;;;;;;5049203;28;20550;-59
2021/01/31 05:37:54;;;;;;;14.35;8.50;;;-4.60;99.90;;;;;;5050717;28;20185;-59
2021/01/31 05:40:35;;;;;;;15.70;9.30;;;-4.60;99.90;;;;;;5053692;28;20197;-59
2021/01/31 05:43:03;;;;;;;14.52;8.60;;;-4.70;99.90;;;;;;5051858;28;20204;-56
2021/01/31 05:45:33;;;;;;;16.02;8.80;;;-4.70;99.90;;;;;;5037069;28;20216;-60
2021/01/31 05:48:01;;;;;;;17.88;10.43;;;-4.70;99.90;;;;;;5045510;28;20186;-59
2021/01/31 05:50:37;;;;;;;15.43;8.50;;;-4.70;99.90;;;;;;5065931;28;20190;-59
2021/01/31 05:53:33;;;;;;;14.23;9.52;;;-4.80;99.90;;;;;;5060586;28;20518;-59
2021/01/31 05:56:25;;;;;;;15.98;9.40;;;-4.80;99.90;;;;;;5041046;28;20206;-58
2021/01/31 05:59:12;;;;;;;16.83;9.55;;;-4.80;99.90;;;;;;5051268;28;20190;-59
2021/01/31 06:02:01;;;;;;;15.95;9.40;;;-4.90;99.90;;;;;;5061164;28;20230;-58
2021/01/31 06:04:27;;;;;;;18.05;10.13;;;-4.90;99.90;;;;;;5064064;28;20576;-59
2021/01/31 06:07:07;;;;;;;18.20;10.90;;;-4.90;99.90;;;;;;5055900;28;20186;-55
2021/01/31 06:09:43;;;;;;;16.58;10.60;;;-5.00;99.90;;;;;;5047107;28;20184;-58
2021/01/31 06:12:22;;;;;;;19.73;10.95;;;-5.00;99.90;;;;;;5052232;28;20214;-58
2021/01/31 06:15:06;;;;;;;16.45;10.20;;;-5.00;99.90;;;;;;5050662;28;20200;-59
2021/01/31 06:17:33;;;;;;;17.13;10.10;;;-5.00;99.90;;;;;;5050260;28;20184;-59
2021/01/31 06:20:16;;;;;;;17.70;9.68;;;-5.10;99.90;;;;;;5050652;28;20186;-58
2021/01/31 06:22:49;;;;;;;19.33;10.80;;;-5.10;99.90;;;;;;5051771;28;20185;-58
2021/01/31 06:25:38;;;;;;;19.85;10.65;;;-5.00;99.90;;;;;;5032828;28;20564;-59
2021/01/31 06:28:10;;;;;;;19.20;11.15;;;-5.10;99.90;;;;;;5051493;28;20664;-59
2021/01/31 06:30:57;;;;;;;18.08;9.77;;;-5.10;99.90;;;;;;5051428;28;20205;-59
2021/01/31 06:33:23;;;;;;;17.52;11.05;;;-5.10;99.90;;;;;;5050191;28;20232;-57
2021/01/31 06:36:04;;;;;;;18.60;10.53;;;-5.10;99.90;;;;;;5071089;28;20303;-57
2021/01/31 06:38:40;;;;;;;15.60;10.00;;;-5.20;99.90;;;;;;5049815;28;20222;-58
2021/01/31 06:41:26;;;;;;;17.58;10.77;;;-5.20;99.90;;;;;;5061739;28;20871;-58
2021/01/31 06:44:09;;;;;;;17.63;10.45;;;-5.20;99.90;;;;;;5050229;28;20684;-58
2021/01/31 06:47:00;;;;;;;21.98;11.55;;;-5.20;99.90;;;;;;5051597;28;20186;-60
2021/01/31 06:49:50;;;;;;;16.17;9.63;;;-5.30;99.90;;;;;;5050211;28;20189;-56
2021/01/31 06:52:36;;;;;;;19.38;9.20;;;-5.30;99.90;;;;;;5050822;28;20191;-59
2021/01/31 06:55:34;;;;;;;15.88;9.82;;;-5.30;99.90;;;;;;5048953;28;20189;-60
2021/01/31 06:58:05;;;;;;;19.23;9.80;;;-5.40;99.90;;;;;;5042526;28;20248;-60
2021/01/31 07:01:01;;;;;;;17.95;10.32;;;-5.40;99.90;;;;;;5052010;28;20575;-58
2021/01/31 07:03:58;;;;;;;17.15;9.57;;;-5.40;99.20;;;;;;5032244;28;20220;-59
2021/01/31 07:06:38;;;;;;;19.38;10.38;;;-5.40;96.80;;;;;;5051119;28;20918;-55
2021/01/31 07:09:28;;;;;;;14.77;9.55;;;-5.50;95.40;;;;;;5051963;28;20509;-54
2021/01/31 07:11:58;;;;;;;15.85;8.82;;;-5.50;95.60;;;;;;5051163;28;20186;-59
2021/01/31 07:14:42;;;;;;;14.73;9.07;;;-5.50;96.00;;;;;;5051546;28;20643;-58
2021/01/31 07:17:38;;;;;;;19.48;10.07;;;-5.50;97.30;;;;;;5061603;28;20213;-59
2021/01/31 07:20:11;;;;;;;15.98;9.73;;;-5.50;98.40;;;;;;5050114;28;20189;-59
2021/01/31 07:22:45;;;;;;;16.92;9.50;;;-5.50;99.00;;;;;;5046024;28;20518;-60
2021/01/31 07:25:13;;;;;;;16.17;9.15;;;-5.50;99.80;;;;;;5044913;28;20200;-59
2021/01/31 07:28:04;;;;;;;16.88;10.23;;;-5.50;99.90;;;;;;5056061;28;20209;-59
2021/01/31 07:31:02;;;;;;;15.52;9.73;;;-5.50;99.90;;;;;;5038103;28;20271;-59
2021/01/31 07:33:38;;;;;;;15.55;9.80;;;-5.40;99.90;;;;;;5040729;28;20863;-56
2021/01/31 07:36:20;;;;;;;16.58;9.32;;;-5.40;99.40;;;;;;5043900;28;20183;-59
2021/01/31 07:39:00;;;;;;;14.85;8.90;;;-5.40;98.90;;;;;;5047623;28;20714;-59
2021/01/31 07:41:27;;;;;;;15.95;10.05;;;-5.40;99.50;;;;;;5052275;28;20186;-59
2021/01/31 07:44:01;;;;;;;13.27;8.68;;;-5.30;99.10;;;;;;5047858;28;20304;-59
2021/01/31 07:46:27;;;;;;;16.77;9.32;;;-5.30;96.50;;;;;;5050042;28;20997;-60
2021/01/31 07:48:59;;;;;;;15.93;9.27;;;-5.30;95.30;;;;;;5054493;28;20657;-60
2021/01/31 07:51:28;;;;;;;13.35;8.65;;;-5.30;95.10;;;;;;5048819;28;20183;-59
2021/01/31 07:53:55;;;;;;;20.05;10.10;;;-5.30;95.40;;;;;;5042970;28;20178;-59
2021/01/31 07:56:37;;;;;;;18.42;9.95;;;-5.30;96.00;;;;;;5050240;28;20193;-60
2021/01/31 07:59:08;;;;;;;14.38;9.60;;;-5.20;96.20;;;;;;5052941;28;20318;-58
2021/01/31 08:01:40;;;;;;;17.63;8.95;;;-5.10;96.90;;;;;;5046765;28;20656;-61
2021/01/31 08:04:17;;;;;;;17.05;10.00;;;-5.10;94.60;;;;;;5036469;28;20276;-59
2021/01/31 08:06:58;;;;;;;17.90;10.90;;;-4.90;95.70;;;;;;5045286;28;20181;-57
2021/01/31 08:09:23;;;;;;;17.15;9.88;;;-4.80;95.70;;;;;;5035565;28;20632;-59
2021/01/31 08:11:49;;;;;;;19.80;10.13;;;-4.50;99.90;;;;;;5039871;28;20201;-59
2021/01/31 08:14:53;;;;;;;18.13;10.13;;;-4.20;99.90;;;;;;5039394;28;20783;-59
2021/01/31 08:17:43;;;;;;;18.00;10.98;;;-3.70;99.90;;;;;;5038616;28;20196;-59
2021/01/31 08:20:20;;;;;;;16.92;10.18;;;-3.00;99.90;;;;;;5040826;28;20853;-60
2021/01/31 08:22:45;;;;;;;18.05;10.60;;;-2.40;99.90;;;;;;5033184;28;20344;-59
2021/01/31 08:25:12;;;;;;;14.57;10.97;;;-2.00;45.20;;;;;;5027863;28;20285;-61
2021/01/31 08:28:00;;;;;;;14.93;10.15;;;-1.40;13.50;;;;;;5045847;28;20204;-59
2021/01/31 08:30:41;;;;;;;13.20;8.80;;;-0.80;1.00;;;;;;4946768;28;20337;-59
2021/01/31 08:33:07;;;;;;;11.73;8.65;;;-0.30;1.00;;;;;;4943503;28;20209;-61
2021/01/31 08:35:41;;;;;;;12.47;9.00;;;0.00;1.00;;;;;;4949432;28;20199;-57
2021/01/31 08:38:18;;;;;;;10.63;8.20;;;0.20;99.90;;;;;;4948595;28;20934;-57
2021/01/31 08:41:05;;;;;;;13.35;8.50;;;0.40;1.00;;;;;;4960982;28;20272;-57
2021/01/31 08:43:33;;;;;;;11.77;9.20;;;0.20;58.60;;;;;;4964067;28;20416;-59
2021/01/31 08:46:14;;;;;;;11.55;8.95;;;0.00;91.50;;;;;;4955969;28;20197;-58
2021/01/31 08:48:49;;;;;;;11.65;8.05;;;0.10;1.00;;;;;;4952180;28;20295;-56
2021/01/31 08:51:18;;;;;;;12.68;9.30;;;0.20;99.90;;;;;;4959281;28;20236;-55
2021/01/31 08:53:44;;;;;;;11.73;8.77;;;0.70;1.00;;;;;;4964686;28;20286;-56
2021/01/31 08:56:27;;;;;;;10.67;8.90;;;0.90;99.90;;;;;;4958329;28;20252;-58
2021/01/31 08:58:53;;;;;;;12.40;9.20;;;1.20;99.90;;;;;;4947709;28;20853;-57
2021/01/31 09:01:19;;;;;;;11.88;9.05;;;1.50;1.00;;;;;;4948348;28;20207;-60
2021/01/31 09:03:46;;;;;;;12.63;8.67;;;1.60;99.90;;;;;;4961203;28;20577;-60
2021/01/31 09:06:12;;;;;;;9.90;7.90;;;1.80;99.90;;;;;;4946379;28;20189;-60
2021/01/31 09:08:41;;;;;;;11.20;8.75;;;2.60;1.00;;;;;;5056094;28;21012;-60
2021/01/31 09:11:11;;;;;;;11.27;8.77;;;2.80;99.90;;;;;;5028629;28;20470;-60
2021/01/31 09:13:38;;;;;;;11.45;8.77;;;2.90;99.90;;;;;;5046967;28;20181;-60
2021/01/31 09:16:11;;;;;;;13.13;9.77;;;3.00;99.90;;;;;;5054608;28;20282;-59
2021/01/31 09:18:36;;;;;;;10.95;9.07;;;3.30;1.00;;;;;;5055013;28;20186;-60
2021/01/31 09:21:26;;;;;;;11.80;9.50;;;3.70;1.00;;;;;;5053589;28;21097;-58
2021/01/31 09:23:58;;;;;;;11.65;9.45;;;3.80;1.00;;;;;;5048918;28;20210;-58
2021/01/31 09:26:26;;;;;;;10.65;8.65;;;4.00;1.00;;;;;;5052520;28;20231;-59
2021/01/31 09:28:53;;;;;;;11.45;9.63;;;4.60;1.00;;;;;;5061008;28;20271;-59
2021/01/31 09:31:19;;;;;;;9.82;8.23;;;4.60;1.00;;;;;;5041076;28;20182;-60
2021/01/31 09:33:46;;;;;;;12.10;9.40;;;5.40;1.00;;;;;;5048027;28;20176;-59
2021/01/31 09:36:24;;;;;;;12.40;9.70;;;5.80;99.90;;;;;;5060758;28;20453;-58
2021/01/31 09:38:52;;;;;;;11.05;8.80;;;5.50;99.90;;;;;;5062509;28;20238;-59
2021/01/31 09:41:20;;;;;;;10.40;8.50;;;5.50;99.90;;;;;;5048628;28;20189;-58
2021/01/31 09:43:50;;;;;;;14.30;10.00;;;6.00;99.90;;;;;;5061159;28;21043;-59
2021/01/31 09:46:17;;;;;;;11.30;10.00;;;6.60;99.90;;;;;;5060898;28;20427;-59
2021/01/31 09:48:44;;;;;;;10.93;9.77;;;7.00;99.90;;;;;;5044289;28;20411;-60
2021/01/31 09:51:24;;;;;;;12.23;10.50;;;6.80;99.90;;;;;;5049326;28;20443;-61
2021/01/31 09:53:49;;;;;;;11.70;9.97;;;6.80;99.90;;;;;;5050181;28;20450;-62
2021/01/31 09:56:39;;;;;;;11.30;9.80;;;6.80;99.90;;;;;;5047057;28;20443;-62
2021/01/31 09:59:20;;;;;;;11.57;9.40;;;6.30;99.90;;;;;;5047355;28;20243;-63
2021/01/31 10:01:46;;;;;;;12.67;10.37;;;6.20;99.90;;;;;;5048011;28;20511;-63
2021/01/31 10:04:21;;;;;;;12.80;10.20;;;6.40;99.90;;;;;;5045570;28;20467;-62
2021/01/31 10:06:48;;;;;;;11.27;10.07;;;7.50;99.90;;;;;;5047606;28;20418;-63
2021/01/31 10:09:27;;;;;;;12.67;10.43;;;6.80;99.90;;;;;;5046667;28;20436;-62
2021/01/31 10:12:14;;;;;;;10.47;9.23;;;6.90;99.90;;;;;;5046363;28;20819;-63
2021/01/31 10:14:46;;;;;;;13.30;10.23;;;7.60;99.90;;;;;;5043570;28;20444;-63
2021/01/31 10:17:31;;;;;;;10.90;9.13;;;8.20;99.90;;;;;;5042825;28;20511;-63
2021/01/31 10:20:28;;;;;;;12.20;10.20;;;8.50;99.90;;;;;;5046217;28;20444;-63
2021/01/31 10:23:16;;;;;;;11.20;9.80;;;8.00;99.90;;;;;;5050550;28;20457;-64
2021/01/31 10:26:05;;;;;;;11.57;9.80;;;8.20;99.90;;;;;;5054973;28;20920;-63
2021/01/31 10:28:34;;;;;;;11.13;10.03;;;8.30;99.90;;;;;;5046342;28;20425;-64
2021/01/31 10:31:00;;;;;;;12.40;10.87;;;8.40;99.90;;;;;;5044194;28;20444;-64
2021/01/31 10:33:43;;;;;;;13.37;10.57;;;8.10;99.90;;;;;;5045917;28;20774;-64
2021/01/31 10:36:36;;;;;;;12.70;10.30;;;8.40;99.90;;;;;;5044702;28;20192;-63
2021/01/31 10:39:13;;;;;;;12.27;10.00;;;9.10;99.90;;;;;;5048390;28;20521;-64
2021/01/31 10:41:40;;;;;;;12.00;10.60;;;9.50;99.90;;;;;;5052895;28;20432;-64
2021/01/31 10:44:09;;;;;;;10.90;9.83;;;10.30;99.90;;;;;;5050525;28;20601;-64
2021/01/31 10:46:36;;;;;;;13.10;11.43;;;10.00;99.90;;;;;;5050275;28;20447;-63
2021/01/31 10:49:02;;;;;;;11.37;10.27;;;9.80;99.90;;;;;;5049343;28;20897;-61
2021/01/31 10:51:32;;;;;;;12.70;11.40;;;9.80;99.90;;;;;;5051126;28;20469;-60
2021/01/31 10:53:58;;;;;;;12.60;10.90;;;10.20;99.90;;;;;;5048638;28;20458;-64
2021/01/31 10:56:24;;;;;;;11.33;10.13;;;9.80;99.90;;;;;;5050754;28;20875;-72
2021/01/31 10:58:50;;;;;;;12.00;10.77;;;10.30;99.90;;;;;;5054242;28;20437;-66
2021/01/31 11:01:16;;;;;;;12.47;11.00;;;11.10;99.90;;;;;;5050033;28;20439;-68
2021/01/31 11:03:41;;;;;;;12.10;10.80;;;11.80;99.90;;;;;;5045559;28;20196;-61
2021/01/31 11:06:07;;;;;;;12.70;11.40;;;11.80;99.90;;;;;;5045732;28;20189;-62
2021/01/31 11:08:33;;;;;;;13.13;11.40;;;11.60;99.90;;;;;;5049275;28;20185;-63
2021/01/31 11:10:59;;;;;;;12.67;11.30;;;11.20;99.90;;;;;;5050059;28;20211;-65
2021/01/31 11:13:25;;;;;;;12.87;11.40;;;10.20;99.90;;;;;;5044168;28;20535;-64
2021/01/31 11:15:51;;;;;;;14.73;12.30;;;9.80;99.90;;;;;;5055750;28;20428;-64
2021/01/31 11:18:17;;;;;;;12.67;11.37;;;10.50;99.90;;;;;;5053260;28;20516;-64
2021/01/31 11:20:43;;;;;;;14.07;11.30;;;10.90;99.90;;;;;;5058485;28;20489;-64
2021/01/31 11:23:09;;;;;;;11.97;10.73;;;11.40;99.90;;;;;;5054320;28;20943;-64
2021/01/31 11:25:35;;;;;;;13.00;11.27;;;11.70;99.90;;;;;;5057159;28;20276;-64
2021/01/31 11:28:00;;;;;;;11.80;10.60;;;11.70;99.90;;;;;;5049558;28;20946;-64
2021/01/31 11:30:27;;;;;;;12.63;11.07;;;12.10;99.90;;;;;;5044857;28;20190;-65
2021/01/31 11:32:53;;;;;;;12.47;10.97;;;12.90;99.90;;;;;;5048955;28;20182;-64
2021/01/31 11:35:19;;;;;;;11.40;10.20;;;13.00;99.90;;;;;;5049220;28;20942;-64
2021/01/31 11:37:44;;;;;;;13.33;11.73;;;12.40;99.90;;;;;;5050107;28;20187;-64
2021/01/31 11:40:10;;;;;;;11.73;10.40;;;11.90;99.90;;;;;;5048499;28;20261;-64
2021/01/31 11:42:36;;;;;;;11.50;10.20;;;12.20;99.90;;;;;;5050356;28;20196;-61
2021/01/31 11:45:05;;;;;;;11.60;10.40;;;12.70;99.90;;;;;;5048604;28;20476;-61
2021/01/31 11:47:30;;;;;;;13.10;11.70;;;12.20;99.90;;;;;;5050365;28;20440;-61
2021/01/31 11:49:56;;;;;;;12.17;10.50;;;11.70;99.90;;;;;;5049705;28;20863;-62
2021/01/31 11:52:22;;;;;;;12.50;11.30;;;11.40;99.90;;;;;;5049184;28;20624;-62
2021/01/31 11:54:47;;;;;;;13.57;11.43;;;11.90;99.90;;;;;;5050902;28;20197;-64
2021/01/31 11:57:13;;;;;;;12.33;11.03;;;11.70;99.90;;;;;;5050450;28;20289;-64
2021/01/31 11:59:40;;;;;;;12.83;11.53;;;11.20;99.90;;;;;;5048810;28;20192;-61
2021/01/31 12:02:06;;;;;;;13.63;11.60;;;11.40;99.90;;;;;;5055032;28;20530;-62
2021/01/31 12:04:32;;;;;;;14.80;11.33;;;12.20;99.90;;;;;;5050183;28;20524;-62
2021/01/31 12:06:57;;;;;;;12.73;11.43;;;12.00;99.90;;;;;;5053454;28;20201;-61
2021/01/31 12:09:23;;;;;;;13.13;11.77;;;10.90;99.90;;;;;;5053289;28;20194;-64
2021/01/31 12:11:48;;;;;;;13.30;11.60;;;10.40;99.90;;;;;;5037415;28;20194;-64
2021/01/31 12:14:15;;;;;;;13.53;12.00;;;10.60;99.90;;;;;;5049827;28;20275;-63
2021/01/31 12:16:41;;;;;;;12.30;11.00;;;11.00;99.90;;;;;;5051213;28;20260;-62
2021/01/31 12:19:06;;;;;;;12.57;10.70;;;10.60;99.90;;;;;;5049228;28;20460;-61
2021/01/31 12:21:32;;;;;;;12.47;10.70;;;9.90;99.90;;;;;;5053961;28;20194;-61
2021/01/31 12:23:58;;;;;;;12.10;10.60;;;9.70;99.90;;;;;;5056437;28;20225;-61
2021/01/31 12:26:23;;;;;;;12.27;10.97;;;9.70;99.90;;;;;;5049635;28;20254;-61
2021/01/31 12:28:49;;;;;;;14.17;10.83;;;10.60;99.90;;;;;;5053437;28;20190;-62
2021/01/31 12:31:15;;;;;;;12.67;10.63;;;10.20;99.90;;;;;;5049487;28;20242;-61
2021/01/31 12:33:40;;;;;;;12.47;11.17;;;9.90;99.90;;;;;;5049144;28;20190;-61
2021/01/31 12:36:07;;;;;;;12.63;9.77;;;9.40;99.90;;;;;;5049587;28;20182;-60
2021/01/31 12:38:33;;;;;;;12.50;10.00;;;9.50;99.90;;;;;;5049310;28;20226;-60
2021/01/31 12:40:59;;;;;;;11.23;10.00;;;9.50;99.90;;;;;;5031114;28;20447;-63
2021/01/31 12:43:24;;;;;;;11.93;10.63;;;10.30;99.90;;;;;;5049310;28;20180;-63
2021/01/31 12:45:50;;;;;;;11.67;10.40;;;11.50;99.90;;;;;;5051801;28;20209;-60
2021/01/31 12:48:16;;;;;;;11.87;10.67;;;12.30;99.90;;;;;;5049689;28;20360;-61
2021/01/31 12:50:42;;;;;;;11.80;10.70;;;12.10;99.90;;;;;;5049205;28;20502;-62
2021/01/31 12:53:09;;;;;;;11.47;10.30;;;11.10;99.90;;;;;;5048754;28;20753;-61
2021/01/31 12:55:35;;;;;;;11.43;10.20;;;10.90;99.90;;;;;;5053870;28;20233;-64
2021/01/31 12:58:01;;;;;;;12.13;10.60;;;10.50;99.90;;;;;;5054221;28;20484;-65
2021/01/31 13:00:27;;;;;;;11.90;10.70;;;10.10;99.90;;;;;;5048324;28;20424;-62
2021/01/31 13:02:52;;;;;;;11.97;10.67;;;10.20;99.90;;;;;;5053247;28;20193;-64